sensor_id;sensor_type;location;lat;lon;timestamp;temperature;humidity
52231;DHT22;38192;50.102;19.884;2022-07-10T00:00:05;16.10;99.90
52231;DHT22;38192;50.102;19.884;2022-07-10T00:02:38;16.10;99.90
52231;DHT22;38192;50.102;19.884;2022-07-10T00:05:05;16.10;99.90
52231;DHT22;38192;50.102;19.884;2022-07-10T00:07:31;16.10;99.90
52231;DHT22;38192;50.102;19.884;2022-07-10T00:09:56;16.10;99.90
52231;DHT22;38192;50.102;19.884;2022-07-10T00:12:22;16.10;99.90
52231;DHT22;38192;50.102;19.884;2022-07-10T00:14:48;16.10;99.90
52231;DHT22;38192;50.102;19.884;2022-07-10T00:17:13;16.10;99.90
52231;DHT22;38192;50.102;19.884;2022-07-10T00:19:39;16.10;99.90
52231;DHT22;38192;50.102;19.884;2022-07-10T00:22:05;16.10;99.90
52231;DHT22;38192;50.102;19.884;2022-07-10T00:24:30;16.00;99.90
52231;DHT22;38192;50.102;19.884;2022-07-10T00:26:57;16.10;99.90
52231;DHT22;38192;50.102;19.884;2022-07-10T00:29:23;16.00;99.90
52231;DHT22;38192;50.102;19.884;2022-07-10T00:31:48;16.00;99.90
52231;DHT22;38192;50.102;19.884;2022-07-10T00:34:14;16.10;99.90
52231;DHT22;38192;50.102;19.884;2022-07-10T00:36:40;16.00;99.90
52231;DHT22;38192;50.102;19.884;2022-07-10T00:39:05;16.00;99.90
52231;DHT22;38192;50.102;19.884;2022-07-10T00:41:31;16.10;99.90
52231;DHT22;38192;50.102;19.884;2022-07-10T00:43:58;16.00;99.90
52231;DHT22;38192;50.102;19.884;2022-07-10T00:46:24;16.10;99.90
52231;DHT22;38192;50.102;19.884;2022-07-10T00:48:50;16.00;99.90
52231;DHT22;38192;50.102;19.884;2022-07-10T00:51:17;16.00;99.90
52231;DHT22;38192;50.102;19.884;2022-07-10T00:53:44;16.00;99.90
52231;DHT22;38192;50.102;19.884;2022-07-10T00:56:10;16.00;99.90
52231;DHT22;38192;50.102;19.884;2022-07-10T00:58:36;16.10;99.90
52231;DHT22;38192;50.102;19.884;2022-07-10T01:01:02;16.10;99.90
52231;DHT22;38192;50.102;19.884;2022-07-10T01:03:27;16.10;99.90
52231;DHT22;38192;50.102;19.884;2022-07-10T01:05:53;16.10;99.90
52231;DHT22;38192;50.102;19.884;2022-07-10T01:08:19;16.10;99.90
52231;DHT22;38192;50.102;19.884;2022-07-10T01:10:45;16.10;99.90
52231;DHT22;38192;50.102;19.884;2022-07-10T01:13:12;16.10;99.90
52231;DHT22;38192;50.102;19.884;2022-07-10T01:15:37;16.10;99.90
52231;DHT22;38192;50.102;19.884;2022-07-10T01:18:03;16.10;99.90
52231;DHT22;38192;50.102;19.884;2022-07-10T01:20:30;16.10;99.90
52231;DHT22;38192;50.102;19.884;2022-07-10T01:22:56;16.00;99.90
52231;DHT22;38192;50.102;19.884;2022-07-10T01:25:22;16.00;99.90
52231;DHT22;38192;50.102;19.884;2022-07-10T01:27:48;16.00;99.90
52231;DHT22;38192;50.102;19.884;2022-07-10T01:30:13;15.90;99.90
52231;DHT22;38192;50.102;19.884;2022-07-10T01:32:39;15.90;99.90
52231;DHT22;38192;50.102;19.884;2022-07-10T01:35:05;15.90;99.90
52231;DHT22;38192;50.102;19.884;2022-07-10T01:37:31;15.80;99.90
52231;DHT22;38192;50.102;19.884;2022-07-10T01:39:57;15.70;99.90
52231;DHT22;38192;50.102;19.884;2022-07-10T01:42:22;15.70;99.90
52231;DHT22;38192;50.102;19.884;2022-07-10T01:44:48;15.60;99.90
52231;DHT22;38192;50.102;19.884;2022-07-10T01:47:14;15.60;99.90
52231;DHT22;38192;50.102;19.884;2022-07-10T01:49:39;15.60;99.90
52231;DHT22;38192;50.102;19.884;2022-07-10T01:52:05;15.50;99.90
52231;DHT22;38192;50.102;19.884;2022-07-10T01:54:31;15.40;99.90
52231;DHT22;38192;50.102;19.884;2022-07-10T01:56:57;15.40;99.90
52231;DHT22;38192;50.102;19.884;2022-07-10T01:59:22;15.30;99.90
52231;DHT22;38192;50.102;19.884;2022-07-10T02:01:48;15.30;99.90
52231;DHT22;38192;50.102;19.884;2022-07-10T02:04:14;15.30;99.90
52231;DHT22;38192;50.102;19.884;2022-07-10T02:06:58;15.30;99.90
52231;DHT22;38192;50.102;19.884;2022-07-10T02:09:24;15.20;99.90
52231;DHT22;38192;50.102;19.884;2022-07-10T02:11:49;15.20;99.90
52231;DHT22;38192;50.102;19.884;2022-07-10T02:14:15;15.20;99.90
52231;DHT22;38192;50.102;19.884;2022-07-10T02:16:41;15.20;99.90
52231;DHT22;38192;50.102;19.884;2022-07-10T02:19:06;15.20;99.90
52231;DHT22;38192;50.102;19.884;2022-07-10T02:21:32;15.20;99.90
52231;DHT22;38192;50.102;19.884;2022-07-10T02:23:58;15.20;99.90
52231;DHT22;38192;50.102;19.884;2022-07-10T02:26:23;15.20;99.90
52231;DHT22;38192;50.102;19.884;2022-07-10T02:28:49;15.20;99.90
52231;DHT22;38192;50.102;19.884;2022-07-10T02:31:15;15.20;99.90
52231;DHT22;38192;50.102;19.884;2022-07-10T02:33:41;15.30;99.90
52231;DHT22;38192;50.102;19.884;2022-07-10T02:36:06;15.30;99.90
52231;DHT22;38192;50.102;19.884;2022-07-10T02:38:32;15.40;99.90
52231;DHT22;38192;50.102;19.884;2022-07-10T02:40:58;15.30;99.90
52231;DHT22;38192;50.102;19.884;2022-07-10T02:43:24;15.30;99.90
52231;DHT22;38192;50.102;19.884;2022-07-10T02:45:49;15.30;99.90
52231;DHT22;38192;50.102;19.884;2022-07-10T02:48:15;15.30;99.90
52231;DHT22;38192;50.102;19.884;2022-07-10T02:50:41;15.30;99.90
52231;DHT22;38192;50.102;19.884;2022-07-10T02:53:07;15.30;99.90
52231;DHT22;38192;50.102;19.884;2022-07-10T02:55:32;15.30;99.90
52231;DHT22;38192;50.102;19.884;2022-07-10T02:57:58;15.30;99.90
52231;DHT22;38192;50.102;19.884;2022-07-10T03:00:25;15.30;99.90
52231;DHT22;38192;50.102;19.884;2022-07-10T03:02:52;15.40;99.90
52231;DHT22;38192;50.102;19.884;2022-07-10T03:05:18;15.40;99.90
52231;DHT22;38192;50.102;19.884;2022-07-10T03:07:44;15.40;99.90
52231;DHT22;38192;50.102;19.884;2022-07-10T03:10:09;15.50;99.90
52231;DHT22;38192;50.102;19.884;2022-07-10T03:12:36;15.50;99.90
52231;DHT22;38192;50.102;19.884;2022-07-10T03:15:02;15.50;99.90
52231;DHT22;38192;50.102;19.884;2022-07-10T03:17:28;15.50;99.90
52231;DHT22;38192;50.102;19.884;2022-07-10T03:19:53;15.50;99.90
52231;DHT22;38192;50.102;19.884;2022-07-10T03:22:20;15.60;99.90
52231;DHT22;38192;50.102;19.884;2022-07-10T03:24:46;15.60;99.90
52231;DHT22;38192;50.102;19.884;2022-07-10T03:27:15;15.60;99.90
52231;DHT22;38192;50.102;19.884;2022-07-10T03:29:40;15.70;99.90
52231;DHT22;38192;50.102;19.884;2022-07-10T03:32:07;15.70;99.90
52231;DHT22;38192;50.102;19.884;2022-07-10T03:34:32;15.70;99.90
52231;DHT22;38192;50.102;19.884;2022-07-10T03:36:59;15.70;99.90
52231;DHT22;38192;50.102;19.884;2022-07-10T03:39:26;15.80;99.90
52231;DHT22;38192;50.102;19.884;2022-07-10T03:41:52;15.90;99.90
52231;DHT22;38192;50.102;19.884;2022-07-10T03:44:18;15.90;99.90
52231;DHT22;38192;50.102;19.884;2022-07-10T03:46:43;16.00;99.90
52231;DHT22;38192;50.102;19.884;2022-07-10T03:49:09;16.00;99.90
52231;DHT22;38192;50.102;19.884;2022-07-10T03:51:34;16.00;99.90
52231;DHT22;38192;50.102;19.884;2022-07-10T03:54:01;16.10;99.90
52231;DHT22;38192;50.102;19.884;2022-07-10T03:56:26;16.10;99.90
52231;DHT22;38192;50.102;19.884;2022-07-10T03:59:12;16.20;99.90
52231;DHT22;38192;50.102;19.884;2022-07-10T04:01:38;16.20;99.90
52231;DHT22;38192;50.102;19.884;2022-07-10T04:04:03;16.20;99.90
52231;DHT22;38192;50.102;19.884;2022-07-10T04:06:29;16.20;99.90
52231;DHT22;38192;50.102;19.884;2022-07-10T04:08:55;16.30;99.90
52231;DHT22;38192;50.102;19.884;2022-07-10T04:11:20;16.30;99.90
52231;DHT22;38192;50.102;19.884;2022-07-10T04:13:46;16.40;99.90
52231;DHT22;38192;50.102;19.884;2022-07-10T04:16:12;16.40;99.90
52231;DHT22;38192;50.102;19.884;2022-07-10T04:18:38;16.40;99.90
52231;DHT22;38192;50.102;19.884;2022-07-10T04:21:05;16.50;99.90
52231;DHT22;38192;50.102;19.884;2022-07-10T04:23:32;16.50;99.90
52231;DHT22;38192;50.102;19.884;2022-07-10T04:25:57;16.50;99.90
52231;DHT22;38192;50.102;19.884;2022-07-10T04:28:23;16.50;99.90
52231;DHT22;38192;50.102;19.884;2022-07-10T04:30:49;16.50;99.90
52231;DHT22;38192;50.102;19.884;2022-07-10T04:33:14;16.50;99.90
52231;DHT22;38192;50.102;19.884;2022-07-10T04:35:40;16.60;99.90
52231;DHT22;38192;50.102;19.884;2022-07-10T04:38:06;16.60;99.90
52231;DHT22;38192;50.102;19.884;2022-07-10T04:40:31;16.60;99.90
52231;DHT22;38192;50.102;19.884;2022-07-10T04:42:57;16.60;99.90
52231;DHT22;38192;50.102;19.884;2022-07-10T04:45:23;16.70;99.90
52231;DHT22;38192;50.102;19.884;2022-07-10T04:47:48;16.70;99.90
52231;DHT22;38192;50.102;19.884;2022-07-10T04:50:14;16.70;99.90
52231;DHT22;38192;50.102;19.884;2022-07-10T04:52:40;16.80;99.90
52231;DHT22;38192;50.102;19.884;2022-07-10T04:55:06;16.80;99.90
52231;DHT22;38192;50.102;19.884;2022-07-10T04:57:31;16.80;99.90
52231;DHT22;38192;50.102;19.884;2022-07-10T04:59:57;16.80;99.90
52231;DHT22;38192;50.102;19.884;2022-07-10T05:02:23;16.80;99.90
52231;DHT22;38192;50.102;19.884;2022-07-10T05:04:49;16.80;99.90
52231;DHT22;38192;50.102;19.884;2022-07-10T05:07:14;16.80;99.90
52231;DHT22;38192;50.102;19.884;2022-07-10T05:09:40;16.80;99.90
52231;DHT22;38192;50.102;19.884;2022-07-10T05:12:06;16.80;99.90
52231;DHT22;38192;50.102;19.884;2022-07-10T05:14:32;16.70;99.90
52231;DHT22;38192;50.102;19.884;2022-07-10T05:16:57;16.70;99.90
52231;DHT22;38192;50.102;19.884;2022-07-10T05:19:24;16.70;99.90
52231;DHT22;38192;50.102;19.884;2022-07-10T05:21:50;16.80;99.90
52231;DHT22;38192;50.102;19.884;2022-07-10T05:24:16;16.90;99.90
52231;DHT22;38192;50.102;19.884;2022-07-10T05:26:42;17.00;99.90
52231;DHT22;38192;50.102;19.884;2022-07-10T05:29:07;17.00;99.90
52231;DHT22;38192;50.102;19.884;2022-07-10T05:31:33;17.20;99.90
52231;DHT22;38192;50.102;19.884;2022-07-10T05:33:59;17.30;99.90
52231;DHT22;38192;50.102;19.884;2022-07-10T05:36:25;17.50;99.90
52231;DHT22;38192;50.102;19.884;2022-07-10T05:38:50;17.70;99.90
52231;DHT22;38192;50.102;19.884;2022-07-10T05:41:16;17.80;99.90
52231;DHT22;38192;50.102;19.884;2022-07-10T05:43:42;17.90;99.90
52231;DHT22;38192;50.102;19.884;2022-07-10T05:46:07;18.00;99.90
52231;DHT22;38192;50.102;19.884;2022-07-10T05:48:33;18.00;99.90
52231;DHT22;38192;50.102;19.884;2022-07-10T05:50:59;18.10;99.90
52231;DHT22;38192;50.102;19.884;2022-07-10T05:53:25;18.00;99.90
52231;DHT22;38192;50.102;19.884;2022-07-10T05:55:50;18.00;99.90
52231;DHT22;38192;50.102;19.884;2022-07-10T05:58:16;18.00;99.90
52231;DHT22;38192;50.102;19.884;2022-07-10T06:00:42;18.00;99.90
52231;DHT22;38192;50.102;19.884;2022-07-10T06:03:11;18.00;99.90
52231;DHT22;38192;50.102;19.884;2022-07-10T06:05:37;18.10;99.90
52231;DHT22;38192;50.102;19.884;2022-07-10T06:08:03;18.10;99.90
52231;DHT22;38192;50.102;19.884;2022-07-10T06:10:29;18.20;99.90
52231;DHT22;38192;50.102;19.884;2022-07-10T06:12:55;18.20;99.90
52231;DHT22;38192;50.102;19.884;2022-07-10T06:15:20;18.30;99.90
52231;DHT22;38192;50.102;19.884;2022-07-10T06:17:46;18.30;99.90
52231;DHT22;38192;50.102;19.884;2022-07-10T06:20:12;18.30;99.90
52231;DHT22;38192;50.102;19.884;2022-07-10T06:22:38;18.30;99.90
52231;DHT22;38192;50.102;19.884;2022-07-10T06:25:06;18.50;99.90
52231;DHT22;38192;50.102;19.884;2022-07-10T06:27:32;18.50;99.90
52231;DHT22;38192;50.102;19.884;2022-07-10T06:29:58;18.60;99.90
52231;DHT22;38192;50.102;19.884;2022-07-10T06:32:24;18.60;99.90
52231;DHT22;38192;50.102;19.884;2022-07-10T06:34:51;18.60;99.90
52231;DHT22;38192;50.102;19.884;2022-07-10T06:37:17;18.40;99.90
52231;DHT22;38192;50.102;19.884;2022-07-10T06:39:43;18.40;99.90
52231;DHT22;38192;50.102;19.884;2022-07-10T06:42:09;18.30;99.90
52231;DHT22;38192;50.102;19.884;2022-07-10T06:44:39;18.30;99.90
52231;DHT22;38192;50.102;19.884;2022-07-10T06:47:05;18.30;99.90
52231;DHT22;38192;50.102;19.884;2022-07-10T06:49:50;18.40;99.90
52231;DHT22;38192;50.102;19.884;2022-07-10T06:52:16;18.50;99.90
52231;DHT22;38192;50.102;19.884;2022-07-10T06:54:42;18.50;99.90
52231;DHT22;38192;50.102;19.884;2022-07-10T06:57:09;18.60;99.90
52231;DHT22;38192;50.102;19.884;2022-07-10T06:59:34;18.60;99.90
52231;DHT22;38192;50.102;19.884;2022-07-10T07:02:00;18.70;99.90
52231;DHT22;38192;50.102;19.884;2022-07-10T07:04:26;18.80;99.90
52231;DHT22;38192;50.102;19.884;2022-07-10T07:06:51;18.90;99.90
52231;DHT22;38192;50.102;19.884;2022-07-10T07:09:19;18.90;99.90
52231;DHT22;38192;50.102;19.884;2022-07-10T07:11:45;19.00;99.90
52231;DHT22;38192;50.102;19.884;2022-07-10T07:14:11;19.20;99.90
52231;DHT22;38192;50.102;19.884;2022-07-10T07:16:37;19.40;99.90
52231;DHT22;38192;50.102;19.884;2022-07-10T07:19:11;19.50;98.70
52231;DHT22;38192;50.102;19.884;2022-07-10T07:21:41;19.70;97.30
52231;DHT22;38192;50.102;19.884;2022-07-10T07:24:25;20.10;96.20
52231;DHT22;38192;50.102;19.884;2022-07-10T07:26:51;20.50;93.50
52231;DHT22;38192;50.102;19.884;2022-07-10T07:29:17;21.10;91.70
52231;DHT22;38192;50.102;19.884;2022-07-10T07:31:42;21.60;86.90
52231;DHT22;38192;50.102;19.884;2022-07-10T07:34:08;21.80;81.50
52231;DHT22;38192;50.102;19.884;2022-07-10T07:36:34;21.90;79.10
52231;DHT22;38192;50.102;19.884;2022-07-10T07:39:00;22.00;78.30
52231;DHT22;38192;50.102;19.884;2022-07-10T07:41:25;22.00;76.30
52231;DHT22;38192;50.102;19.884;2022-07-10T07:43:51;21.90;76.10
52231;DHT22;38192;50.102;19.884;2022-07-10T07:46:18;21.80;76.40
52231;DHT22;38192;50.102;19.884;2022-07-10T07:48:44;21.80;80.90
52231;DHT22;38192;50.102;19.884;2022-07-10T07:51:09;22.20;80.40
52231;DHT22;38192;50.102;19.884;2022-07-10T07:53:35;22.60;76.80
52231;DHT22;38192;50.102;19.884;2022-07-10T07:56:01;23.10;74.50
52231;DHT22;38192;50.102;19.884;2022-07-10T07:58:27;23.70;69.70
52231;DHT22;38192;50.102;19.884;2022-07-10T08:00:52;24.00;66.60
52231;DHT22;38192;50.102;19.884;2022-07-10T08:03:18;24.30;66.70
52231;DHT22;38192;50.102;19.884;2022-07-10T08:05:44;24.50;64.70
52231;DHT22;38192;50.102;19.884;2022-07-10T08:08:09;24.50;63.50
52231;DHT22;38192;50.102;19.884;2022-07-10T08:10:35;24.40;63.10
52231;DHT22;38192;50.102;19.884;2022-07-10T08:13:03;24.20;63.00
52231;DHT22;38192;50.102;19.884;2022-07-10T08:15:29;24.00;63.10
52231;DHT22;38192;50.102;19.884;2022-07-10T08:17:56;23.80;63.80
52231;DHT22;38192;50.102;19.884;2022-07-10T08:20:22;23.70;63.80
52231;DHT22;38192;50.102;19.884;2022-07-10T08:22:48;23.80;63.30
52231;DHT22;38192;50.102;19.884;2022-07-10T08:25:14;24.10;63.50
52231;DHT22;38192;50.102;19.884;2022-07-10T08:27:40;24.40;62.30
52231;DHT22;38192;50.102;19.884;2022-07-10T08:30:06;24.80;61.20
52231;DHT22;38192;50.102;19.884;2022-07-10T08:32:34;25.30;60.40
52231;DHT22;38192;50.102;19.884;2022-07-10T08:35:00;25.70;59.70
52231;DHT22;38192;50.102;19.884;2022-07-10T08:37:25;26.00;58.30
52231;DHT22;38192;50.102;19.884;2022-07-10T08:39:51;26.00;56.80
52231;DHT22;38192;50.102;19.884;2022-07-10T08:42:17;25.70;55.40
52231;DHT22;38192;50.102;19.884;2022-07-10T08:44:43;25.10;55.70
52231;DHT22;38192;50.102;19.884;2022-07-10T08:47:09;24.60;57.00
52231;DHT22;38192;50.102;19.884;2022-07-10T08:49:37;24.00;58.30
52231;DHT22;38192;50.102;19.884;2022-07-10T08:52:04;23.50;59.70
52231;DHT22;38192;50.102;19.884;2022-07-10T08:54:30;23.10;61.50
52231;DHT22;38192;50.102;19.884;2022-07-10T08:56:57;22.80;63.30
52231;DHT22;38192;50.102;19.884;2022-07-10T08:59:23;22.60;64.60
52231;DHT22;38192;50.102;19.884;2022-07-10T09:01:49;22.60;65.30
52231;DHT22;38192;50.102;19.884;2022-07-10T09:04:20;22.60;64.40
52231;DHT22;38192;50.102;19.884;2022-07-10T09:06:45;22.50;63.20
52231;DHT22;38192;50.102;19.884;2022-07-10T09:09:11;22.30;63.70
52231;DHT22;38192;50.102;19.884;2022-07-10T09:11:40;22.00;63.60
52231;DHT22;38192;50.102;19.884;2022-07-10T09:14:08;21.70;65.30
52231;DHT22;38192;50.102;19.884;2022-07-10T09:16:36;21.60;66.50
52231;DHT22;38192;50.102;19.884;2022-07-10T09:19:44;21.70;66.40
52231;DHT22;38192;50.102;19.884;2022-07-10T09:21:52;21.80;65.70
52231;DHT22;38192;50.102;19.884;2022-07-10T09:24:18;21.80;65.60
52231;DHT22;38192;50.102;19.884;2022-07-10T09:26:57;21.80;66.20
52231;DHT22;38192;50.102;19.884;2022-07-10T09:29:24;21.80;66.80
52231;DHT22;38192;50.102;19.884;2022-07-10T09:31:50;21.70;67.20
52231;DHT22;38192;50.102;19.884;2022-07-10T09:34:17;21.80;67.40
52231;DHT22;38192;50.102;19.884;2022-07-10T09:36:43;21.60;67.20
52231;DHT22;38192;50.102;19.884;2022-07-10T09:39:08;21.60;66.60
52231;DHT22;38192;50.102;19.884;2022-07-10T09:41:34;21.60;66.60
52231;DHT22;38192;50.102;19.884;2022-07-10T09:44:04;21.60;65.30
52231;DHT22;38192;50.102;19.884;2022-07-10T09:46:33;21.80;64.90
52231;DHT22;38192;50.102;19.884;2022-07-10T09:51:29;22.00;63.60
52231;DHT22;38192;50.102;19.884;2022-07-10T09:53:55;22.00;63.00
52231;DHT22;38192;50.102;19.884;2022-07-10T09:56:21;22.00;63.40
52231;DHT22;38192;50.102;19.884;2022-07-10T09:58:48;22.00;63.10
52231;DHT22;38192;50.102;19.884;2022-07-10T10:01:17;22.00;63.70
52231;DHT22;38192;50.102;19.884;2022-07-10T10:03:44;22.30;62.80
52231;DHT22;38192;50.102;19.884;2022-07-10T10:06:16;22.40;62.70
52231;DHT22;38192;50.102;19.884;2022-07-10T10:08:51;22.50;60.50
52231;DHT22;38192;50.102;19.884;2022-07-10T10:11:20;22.50;60.50
52231;DHT22;38192;50.102;19.884;2022-07-10T10:13:46;22.60;61.00
52231;DHT22;38192;50.102;19.884;2022-07-10T10:16:13;22.70;59.80
52231;DHT22;38192;50.102;19.884;2022-07-10T10:18:41;22.70;60.20
52231;DHT22;38192;50.102;19.884;2022-07-10T10:21:27;22.60;60.30
52231;DHT22;38192;50.102;19.884;2022-07-10T10:23:54;22.50;60.40
52231;DHT22;38192;50.102;19.884;2022-07-10T10:26:20;22.40;61.30
52231;DHT22;38192;50.102;19.884;2022-07-10T10:28:46;22.20;60.30
52231;DHT22;38192;50.102;19.884;2022-07-10T10:31:12;22.10;61.50
52231;DHT22;38192;50.102;19.884;2022-07-10T10:33:41;21.80;62.10
52231;DHT22;38192;50.102;19.884;2022-07-10T10:36:08;21.70;63.90
52231;DHT22;38192;50.102;19.884;2022-07-10T10:46:32;21.00;64.30
52231;DHT22;38192;50.102;19.884;2022-07-10T10:49:07;20.80;62.80
52231;DHT22;38192;50.102;19.884;2022-07-10T10:54:18;20.60;63.70
52231;DHT22;38192;50.102;19.884;2022-07-10T10:56:43;20.60;63.30
52231;DHT22;38192;50.102;19.884;2022-07-10T10:59:09;20.50;63.10
52231;DHT22;38192;50.102;19.884;2022-07-10T11:01:35;20.50;64.90
52231;DHT22;38192;50.102;19.884;2022-07-10T11:09:23;20.90;66.10
52231;DHT22;38192;50.102;19.884;2022-07-10T11:12:09;21.10;65.80
52231;DHT22;38192;50.102;19.884;2022-07-10T11:14:36;21.30;65.20
52231;DHT22;38192;50.102;19.884;2022-07-10T11:17:03;21.50;64.70
52231;DHT22;38192;50.102;19.884;2022-07-10T11:19:30;21.50;64.00
52231;DHT22;38192;50.102;19.884;2022-07-10T11:24:42;21.30;63.70
52231;DHT22;38192;50.102;19.884;2022-07-10T11:29:57;21.30;63.80
52231;DHT22;38192;50.102;19.884;2022-07-10T11:32:23;21.30;64.10
52231;DHT22;38192;50.102;19.884;2022-07-10T11:34:49;21.20;63.80
52231;DHT22;38192;50.102;19.884;2022-07-10T11:37:15;21.20;65.00
52231;DHT22;38192;50.102;19.884;2022-07-10T11:39:41;21.20;64.70
52231;DHT22;38192;50.102;19.884;2022-07-10T11:42:07;21.30;63.90
52231;DHT22;38192;50.102;19.884;2022-07-10T11:44:33;21.50;64.50
52231;DHT22;38192;50.102;19.884;2022-07-10T11:46:59;21.70;63.20
52231;DHT22;38192;50.102;19.884;2022-07-10T11:49:25;21.90;61.90
52231;DHT22;38192;50.102;19.884;2022-07-10T11:51:50;22.00;62.10
52231;DHT22;38192;50.102;19.884;2022-07-10T11:54:16;22.10;61.00
52231;DHT22;38192;50.102;19.884;2022-07-10T11:56:50;22.30;59.80
52231;DHT22;38192;50.102;19.884;2022-07-10T11:59:26;22.30;60.00
52231;DHT22;38192;50.102;19.884;2022-07-10T12:01:53;22.40;59.00
52231;DHT22;38192;50.102;19.884;2022-07-10T12:04:19;22.40;57.30
52231;DHT22;38192;50.102;19.884;2022-07-10T12:06:49;22.30;56.30
52231;DHT22;38192;50.102;19.884;2022-07-10T12:09:16;22.10;56.00
52231;DHT22;38192;50.102;19.884;2022-07-10T12:11:43;22.00;56.00
52231;DHT22;38192;50.102;19.884;2022-07-10T12:14:15;21.90;55.80
52231;DHT22;38192;50.102;19.884;2022-07-10T12:16:47;21.80;56.50
52231;DHT22;38192;50.102;19.884;2022-07-10T12:19:16;21.70;56.20
52231;DHT22;38192;50.102;19.884;2022-07-10T12:21:43;21.60;56.50
52231;DHT22;38192;50.102;19.884;2022-07-10T12:24:09;21.60;56.90
52231;DHT22;38192;50.102;19.884;2022-07-10T12:26:36;21.60;57.20
52231;DHT22;38192;50.102;19.884;2022-07-10T12:29:02;21.50;57.90
52231;DHT22;38192;50.102;19.884;2022-07-10T12:31:29;21.60;58.30
52231;DHT22;38192;50.102;19.884;2022-07-10T12:33:56;21.60;58.50
52231;DHT22;38192;50.102;19.884;2022-07-10T12:39:08;21.70;58.90
52231;DHT22;38192;50.102;19.884;2022-07-10T12:41:33;21.90;58.90
52231;DHT22;38192;50.102;19.884;2022-07-10T12:43:59;22.00;58.50
52231;DHT22;38192;50.102;19.884;2022-07-10T12:46:25;22.10;58.30
52231;DHT22;38192;50.102;19.884;2022-07-10T12:49:07;22.20;58.30
52231;DHT22;38192;50.102;19.884;2022-07-10T12:51:44;22.20;58.20
52231;DHT22;38192;50.102;19.884;2022-07-10T12:56:57;21.90;59.80
52231;DHT22;38192;50.102;19.884;2022-07-10T12:59:23;21.80;60.30
52231;DHT22;38192;50.102;19.884;2022-07-10T13:01:49;21.50;60.50
52231;DHT22;38192;50.102;19.884;2022-07-10T13:04:22;21.30;61.20
52231;DHT22;38192;50.102;19.884;2022-07-10T13:06:47;21.10;62.10
52231;DHT22;38192;50.102;19.884;2022-07-10T13:09:17;20.90;61.70
52231;DHT22;38192;50.102;19.884;2022-07-10T13:11:43;20.80;61.80
52231;DHT22;38192;50.102;19.884;2022-07-10T13:14:09;20.50;61.80
52231;DHT22;38192;50.102;19.884;2022-07-10T13:16:34;20.30;62.20
52231;DHT22;38192;50.102;19.884;2022-07-10T13:19:00;20.20;63.50
52231;DHT22;38192;50.102;19.884;2022-07-10T13:21:26;20.20;64.30
52231;DHT22;38192;50.102;19.884;2022-07-10T13:23:52;20.20;64.60
52231;DHT22;38192;50.102;19.884;2022-07-10T13:26:17;20.40;64.70
52231;DHT22;38192;50.102;19.884;2022-07-10T13:28:43;20.50;64.90
52231;DHT22;38192;50.102;19.884;2022-07-10T13:31:09;20.70;63.10
52231;DHT22;38192;50.102;19.884;2022-07-10T13:33:35;20.90;62.00
52231;DHT22;38192;50.102;19.884;2022-07-10T13:36:02;21.10;61.10
52231;DHT22;38192;50.102;19.884;2022-07-10T13:38:28;21.10;60.50
52231;DHT22;38192;50.102;19.884;2022-07-10T13:40:54;21.20;60.80
52231;DHT22;38192;50.102;19.884;2022-07-10T13:43:19;21.10;61.20
52231;DHT22;38192;50.102;19.884;2022-07-10T13:45:46;21.20;62.20
52231;DHT22;38192;50.102;19.884;2022-07-10T13:48:12;21.20;61.60
52231;DHT22;38192;50.102;19.884;2022-07-10T13:50:39;21.30;62.20
52231;DHT22;38192;50.102;19.884;2022-07-10T13:53:04;21.40;61.00
52231;DHT22;38192;50.102;19.884;2022-07-10T13:55:30;21.40;61.20
52231;DHT22;38192;50.102;19.884;2022-07-10T13:57:56;21.40;61.10
52231;DHT22;38192;50.102;19.884;2022-07-10T14:00:22;21.50;61.10
52231;DHT22;38192;50.102;19.884;2022-07-10T14:02:47;21.50;60.80
52231;DHT22;38192;50.102;19.884;2022-07-10T14:05:13;21.50;60.60
52231;DHT22;38192;50.102;19.884;2022-07-10T14:07:39;21.60;60.70
52231;DHT22;38192;50.102;19.884;2022-07-10T14:10:05;21.60;60.90
52231;DHT22;38192;50.102;19.884;2022-07-10T14:12:31;21.60;61.90
52231;DHT22;38192;50.102;19.884;2022-07-10T14:14:57;21.70;60.70
52231;DHT22;38192;50.102;19.884;2022-07-10T14:17:22;21.70;59.60
52231;DHT22;38192;50.102;19.884;2022-07-10T14:19:49;21.70;58.60
52231;DHT22;38192;50.102;19.884;2022-07-10T14:22:15;21.70;58.50
52231;DHT22;38192;50.102;19.884;2022-07-10T14:24:41;21.60;57.50
52231;DHT22;38192;50.102;19.884;2022-07-10T14:27:07;21.60;56.50
52231;DHT22;38192;50.102;19.884;2022-07-10T14:29:33;21.60;55.70
52231;DHT22;38192;50.102;19.884;2022-07-10T14:31:58;21.50;55.50
52231;DHT22;38192;50.102;19.884;2022-07-10T14:34:24;21.50;55.80
52231;DHT22;38192;50.102;19.884;2022-07-10T14:36:50;21.50;55.30
52231;DHT22;38192;50.102;19.884;2022-07-10T14:39:16;21.50;54.80
52231;DHT22;38192;50.102;19.884;2022-07-10T14:41:42;21.60;55.30
52231;DHT22;38192;50.102;19.884;2022-07-10T14:44:07;21.70;56.10
52231;DHT22;38192;50.102;19.884;2022-07-10T14:46:33;21.70;56.40
52231;DHT22;38192;50.102;19.884;2022-07-10T14:48:59;21.80;56.90
52231;DHT22;38192;50.102;19.884;2022-07-10T14:51:25;21.80;57.00
52231;DHT22;38192;50.102;19.884;2022-07-10T14:53:51;21.80;57.60
52231;DHT22;38192;50.102;19.884;2022-07-10T14:56:16;21.80;57.70
52231;DHT22;38192;50.102;19.884;2022-07-10T14:58:42;21.80;57.80
52231;DHT22;38192;50.102;19.884;2022-07-10T15:01:08;21.70;58.00
52231;DHT22;38192;50.102;19.884;2022-07-10T15:03:34;21.60;58.80
52231;DHT22;38192;50.102;19.884;2022-07-10T15:06:00;21.60;59.40
52231;DHT22;38192;50.102;19.884;2022-07-10T15:08:25;21.50;59.70
52231;DHT22;38192;50.102;19.884;2022-07-10T15:10:51;21.30;60.20
52231;DHT22;38192;50.102;19.884;2022-07-10T15:13:17;21.20;60.90
52231;DHT22;38192;50.102;19.884;2022-07-10T15:15:43;21.10;60.80
52231;DHT22;38192;50.102;19.884;2022-07-10T15:18:08;21.00;61.50
52231;DHT22;38192;50.102;19.884;2022-07-10T15:20:34;20.90;62.50
52231;DHT22;38192;50.102;19.884;2022-07-10T15:23:00;20.80;63.20
52231;DHT22;38192;50.102;19.884;2022-07-10T15:25:27;20.90;63.20
52231;DHT22;38192;50.102;19.884;2022-07-10T15:27:52;20.90;63.20
52231;DHT22;38192;50.102;19.884;2022-07-10T15:30:18;20.80;63.20
52231;DHT22;38192;50.102;19.884;2022-07-10T15:32:44;20.90;64.10
52231;DHT22;38192;50.102;19.884;2022-07-10T15:35:11;21.00;62.90
52231;DHT22;38192;50.102;19.884;2022-07-10T15:37:37;21.10;62.70
52231;DHT22;38192;50.102;19.884;2022-07-10T15:40:03;21.10;62.60